createdAt,value
2018-05-17T00:01:57.314Z,11.60
2018-05-17T00:04:31.983Z,11.60
2018-05-17T00:07:05.862Z,11.50
2018-05-17T00:09:44.324Z,11.50
2018-05-17T00:12:18.933Z,11.40
2018-05-17T00:14:52.621Z,11.40
2018-05-17T00:17:27.212Z,11.30
2018-05-17T00:20:01.028Z,11.40
2018-05-17T00:22:34.754Z,11.30
2018-05-17T00:25:08.922Z,11.20
2018-05-17T00:27:42.931Z,11.20
2018-05-17T00:30:18.275Z,11.20
2018-05-17T00:33:00.390Z,11.10
2018-05-17T00:35:35.411Z,11.10
2018-05-17T00:38:11.116Z,11.10
2018-05-17T00:40:46.664Z,11.00
2018-05-17T00:43:20.680Z,11.00
2018-05-17T00:45:56.730Z,10.90
2018-05-17T00:48:31.820Z,10.90
2018-05-17T00:51:10.390Z,10.90
2018-05-17T00:53:49.377Z,10.90
2018-05-17T00:56:24.654Z,11.00
2018-05-17T00:58:58.350Z,10.90
2018-05-17T01:01:33.029Z,10.90
2018-05-17T01:04:07.740Z,10.90
2018-05-17T01:06:41.516Z,10.80
2018-05-17T01:09:15.420Z,10.80
2018-05-17T01:11:49.856Z,10.90
2018-05-17T01:14:24.007Z,10.80
2018-05-17T01:16:58.635Z,10.80
2018-05-17T01:19:32.279Z,10.80
2018-05-17T01:22:06.143Z,10.80
2018-05-17T01:24:41.491Z,10.80
2018-05-17T01:27:16.579Z,10.70
2018-05-17T01:29:50.942Z,10.70
2018-05-17T01:32:25.598Z,10.80
2018-05-17T01:34:59.329Z,10.70
2018-05-17T01:37:45.041Z,10.70
2018-05-17T01:40:18.869Z,10.70
2018-05-17T01:42:54.266Z,10.70
2018-05-17T01:45:31.704Z,10.70
2018-05-17T01:48:06.329Z,10.60
2018-05-17T01:50:41.084Z,10.60
2018-05-17T01:53:14.788Z,10.60
2018-05-17T01:55:48.938Z,10.70
2018-05-17T01:58:23.577Z,10.70
2018-05-17T02:00:59.007Z,10.60
2018-05-17T02:03:33.885Z,10.60
2018-05-17T02:06:08.368Z,10.60
2018-05-17T02:08:42.131Z,10.70
2018-05-17T02:11:18.744Z,10.60
2018-05-17T02:13:55.407Z,10.60
2018-05-17T02:16:30.715Z,10.60
2018-05-17T02:19:06.543Z,10.60
2018-05-17T02:21:40.784Z,10.50
2018-05-17T02:24:15.255Z,10.50
2018-05-17T02:26:51.636Z,10.40
2018-05-17T02:29:26.697Z,10.40
2018-05-17T02:32:02.090Z,10.30
2018-05-17T02:34:38.566Z,10.40
2018-05-17T02:37:18.048Z,10.30
2018-05-17T02:39:52.142Z,10.40
2018-05-17T02:42:32.432Z,10.30
2018-05-17T02:45:06.633Z,10.30
2018-05-17T02:47:41.933Z,10.30
2018-05-17T02:50:15.769Z,10.30
2018-05-17T02:52:51.867Z,10.40
2018-05-17T02:55:31.032Z,10.40
2018-05-17T02:58:04.728Z,10.40
2018-05-17T03:00:38.402Z,10.40
2018-05-17T03:03:12.445Z,10.40
2018-05-17T03:05:48.751Z,10.40
2018-05-17T03:08:24.862Z,10.30
2018-05-17T03:10:58.569Z,10.40
2018-05-17T03:13:32.325Z,10.30
2018-05-17T03:16:06.546Z,10.20
2018-05-17T03:18:40.400Z,10.20
2018-05-17T03:21:14.221Z,10.20
2018-05-17T03:23:48.035Z,10.20
2018-05-17T03:26:22.017Z,10.20
2018-05-17T03:28:56.104Z,10.20
2018-05-17T03:31:29.893Z,10.20
2018-05-17T03:34:03.670Z,10.10
2018-05-17T03:36:37.431Z,10.10
2018-05-17T03:39:12.274Z,10.10
2018-05-17T03:41:46.245Z,10.10
2018-05-17T03:44:20.365Z,10.20
2018-05-17T03:46:54.565Z,10.20
2018-05-17T03:49:28.401Z,10.20
2018-05-17T03:52:02.112Z,10.20
2018-05-17T03:54:38.305Z,10.20
2018-05-17T03:57:12.765Z,10.20
2018-05-17T03:59:46.981Z,10.20
2018-05-17T04:02:32.599Z,10.20
2018-05-17T04:05:18.284Z,10.20
2018-05-17T04:07:53.708Z,10.10
2018-05-17T04:10:27.349Z,10.10
2018-05-17T04:13:01.934Z,10.10
2018-05-17T04:15:38.246Z,10.10
2018-05-17T04:18:13.851Z,10.10
2018-05-17T04:20:48.859Z,10.10
2018-05-17T04:23:22.701Z,10.10
2018-05-17T04:25:56.985Z,10.20
2018-05-17T04:28:31.378Z,10.20
2018-05-17T04:31:06.208Z,10.20
2018-05-17T04:33:40.807Z,10.20
2018-05-17T04:36:17.677Z,10.20
2018-05-17T04:38:52.563Z,10.10
2018-05-17T04:41:28.306Z,10.10
2018-05-17T04:44:02.775Z,10.10
2018-05-17T04:46:36.451Z,10.10
2018-05-17T04:49:10.051Z,10.10
2018-05-17T04:51:44.635Z,10.10
2018-05-17T04:54:18.315Z,10.20
2018-05-17T04:56:52.912Z,10.10
2018-05-17T04:59:27.407Z,10.10
2018-05-17T05:02:02.030Z,10.00
2018-05-17T05:04:35.963Z,10.00
2018-05-17T05:07:09.673Z,10.10
2018-05-17T05:09:45.155Z,10.10
2018-05-17T05:12:18.778Z,10.10
2018-05-17T05:15:01.430Z,10.10
2018-05-17T05:17:36.028Z,10.10
2018-05-17T05:20:09.697Z,10.10
2018-05-17T05:22:43.459Z,10.20
2018-05-17T05:25:17.373Z,10.20
2018-05-17T05:27:52.442Z,10.30
2018-05-17T05:30:26.293Z,10.30
2018-05-17T05:33:00.119Z,10.40
2018-05-17T05:35:35.362Z,10.60
2018-05-17T05:38:09.102Z,10.60
2018-05-17T05:40:43.741Z,10.70
2018-05-17T05:43:17.536Z,10.50
2018-05-17T05:45:51.225Z,10.40
2018-05-17T05:48:24.955Z,10.40
2018-05-17T05:50:58.702Z,10.40
2018-05-17T05:53:33.140Z,10.40
2018-05-17T05:56:06.870Z,10.30
2018-05-17T05:58:41.767Z,10.40
2018-05-17T06:01:17.064Z,10.50
2018-05-17T06:03:52.735Z,10.50
2018-05-17T06:06:28.110Z,10.40
2018-05-17T06:09:01.950Z,10.50
2018-05-17T06:11:35.741Z,10.50
2018-05-17T06:14:09.446Z,10.60
2018-05-17T06:16:43.686Z,10.80
2018-05-17T06:19:17.386Z,11.10
2018-05-17T06:21:51.204Z,11.20
2018-05-17T06:24:24.971Z,11.20
2018-05-17T06:26:58.547Z,11.30
2018-05-17T06:29:33.155Z,11.10
2018-05-17T06:32:06.908Z,11.10
2018-05-17T06:34:40.861Z,11.10
2018-05-17T06:37:14.564Z,11.10
2018-05-17T06:39:48.306Z,11.10
2018-05-17T06:42:22.044Z,11.20
2018-05-17T06:44:55.794Z,11.50
2018-05-17T06:47:29.563Z,11.50
2018-05-17T06:50:03.333Z,11.60
2018-05-17T06:52:37.115Z,11.70
2018-05-17T06:55:10.881Z,11.60
2018-05-17T06:57:44.648Z,11.50
2018-05-17T07:00:18.322Z,11.30
2018-05-17T07:02:52.019Z,11.10
2018-05-17T07:05:25.728Z,11.20
2018-05-17T07:08:00.375Z,11.40
2018-05-17T07:10:34.249Z,11.40
2018-05-17T07:13:08.824Z,11.50
2018-05-17T07:15:48.028Z,11.50
2018-05-17T07:18:21.767Z,11.50
2018-05-17T07:20:56.326Z,11.70
2018-05-17T07:23:30.066Z,11.40
2018-05-17T07:26:04.704Z,11.40
2018-05-17T07:28:38.500Z,11.40
2018-05-17T07:31:12.403Z,11.40
2018-05-17T07:33:46.050Z,11.50
2018-05-17T07:36:20.271Z,11.60
2018-05-17T07:38:53.909Z,11.80
2018-05-17T07:41:28.491Z,11.70
2018-05-17T07:44:02.392Z,11.70
2018-05-17T07:46:36.257Z,11.60
2018-05-17T07:49:09.935Z,11.30
2018-05-17T07:51:43.569Z,11.50
2018-05-17T07:54:17.395Z,11.70
2018-05-17T07:56:51.152Z,11.60
2018-05-17T07:59:24.905Z,11.70
2018-05-17T08:01:59.483Z,11.90
2018-05-17T08:04:33.278Z,11.80
2018-05-17T08:07:07.101Z,11.80
2018-05-17T08:09:40.875Z,11.80
2018-05-17T08:12:14.493Z,11.70
2018-05-17T08:14:48.995Z,12.00
2018-05-17T08:17:22.821Z,12.00
2018-05-17T08:19:57.317Z,11.90
2018-05-17T08:22:31.132Z,11.80
2018-05-17T08:25:04.998Z,11.90
2018-05-17T08:27:39.686Z,12.20
2018-05-17T08:30:13.414Z,12.20
2018-05-17T08:32:47.274Z,12.20
2018-05-17T08:35:21.098Z,12.50
2018-05-17T08:37:55.736Z,12.50
2018-05-17T08:40:29.464Z,12.60
2018-05-17T08:43:03.238Z,12.50
2018-05-17T08:45:36.965Z,12.40
2018-05-17T08:48:10.718Z,12.70
2018-05-17T08:50:44.506Z,12.70
2018-05-17T08:53:18.231Z,12.70
2018-05-17T08:55:52.579Z,13.00
2018-05-17T08:58:26.375Z,13.00
2018-05-17T09:01:00.200Z,13.20
2018-05-17T09:03:35.692Z,13.00
2018-05-17T09:06:09.725Z,12.80
2018-05-17T09:08:44.266Z,12.70
2018-05-17T09:11:18.089Z,12.70
2018-05-17T09:13:53.246Z,12.90
2018-05-17T09:16:27.932Z,13.30
2018-05-17T09:19:01.740Z,13.60
2018-05-17T09:21:35.458Z,13.50
2018-05-17T09:24:10.374Z,13.50
2018-05-17T09:26:44.114Z,13.50
2018-05-17T09:29:17.938Z,13.10
2018-05-17T09:31:51.700Z,13.00
2018-05-17T09:34:25.458Z,13.10
2018-05-17T09:36:59.220Z,13.30
2018-05-17T09:39:34.575Z,13.70
2018-05-17T09:42:10.236Z,13.70
2018-05-17T09:44:44.724Z,14.20
2018-05-17T09:47:18.533Z,14.20
2018-05-17T09:49:52.271Z,13.90
2018-05-17T09:52:26.538Z,14.30
2018-05-17T09:55:00.300Z,14.70
2018-05-17T09:57:34.000Z,14.70
2018-05-17T10:00:07.763Z,14.30
2018-05-17T10:02:41.451Z,14.30
2018-05-17T10:05:15.035Z,14.10
2018-05-17T10:07:48.847Z,14.00
2018-05-17T10:10:22.663Z,13.90
2018-05-17T10:12:56.494Z,13.80
2018-05-17T10:15:30.344Z,14.20
2018-05-17T10:18:04.001Z,14.20
2018-05-17T10:20:37.808Z,14.00
2018-05-17T10:23:11.681Z,14.20
2018-05-17T10:25:45.238Z,14.30
2018-05-17T10:28:19.733Z,14.50
2018-05-17T10:30:53.505Z,14.40
2018-05-17T10:33:27.202Z,14.50
2018-05-17T10:36:02.223Z,14.80
2018-05-17T10:38:36.913Z,14.80
2018-05-17T10:41:10.613Z,15.20
2018-05-17T10:43:44.357Z,15.70
2018-05-17T10:46:18.882Z,15.10
2018-05-17T10:48:54.199Z,14.50
2018-05-17T10:51:28.589Z,14.80
2018-05-17T10:54:03.101Z,14.90
2018-05-17T10:56:36.925Z,14.80
2018-05-17T10:59:11.485Z,15.00
2018-05-17T11:01:45.287Z,15.00
2018-05-17T11:04:19.048Z,15.20
2018-05-17T11:06:52.771Z,15.10
2018-05-17T11:09:26.455Z,15.10
2018-05-17T11:12:00.802Z,15.00
2018-05-17T11:14:35.697Z,15.00
2018-05-17T11:17:10.807Z,15.00
2018-05-17T11:19:44.559Z,15.10
2018-05-17T11:22:18.225Z,14.80
2018-05-17T11:24:52.942Z,15.00
2018-05-17T11:27:27.410Z,15.00
2018-05-17T11:30:02.805Z,15.00
2018-05-17T11:32:36.501Z,15.00
2018-05-17T11:35:10.407Z,15.00
2018-05-17T11:37:44.143Z,15.30
2018-05-17T11:40:17.967Z,15.20
2018-05-17T11:42:51.661Z,15.20
2018-05-17T11:45:26.224Z,15.50
2018-05-17T11:47:59.963Z,15.50
2018-05-17T11:50:33.835Z,15.40
2018-05-17T11:53:07.659Z,15.30
2018-05-17T11:55:42.395Z,15.70
2018-05-17T11:58:16.786Z,16.00
2018-05-17T12:00:51.356Z,16.30
2018-05-17T12:03:25.079Z,16.30
2018-05-17T12:05:58.856Z,16.70
2018-05-17T12:08:33.783Z,17.00
2018-05-17T12:11:07.625Z,17.00
2018-05-17T12:13:41.367Z,17.10
2018-05-17T12:16:16.661Z,17.40
2018-05-17T12:18:50.271Z,17.60
2018-05-17T12:21:24.132Z,17.80
2018-05-17T12:24:01.318Z,18.20
2018-05-17T12:26:35.368Z,18.10
2018-05-17T12:29:10.867Z,18.70
2018-05-17T12:31:45.821Z,18.70
2018-05-17T12:34:21.404Z,18.50
2018-05-17T12:36:55.250Z,18.90
2018-05-17T12:39:30.869Z,19.20
2018-05-17T12:42:06.832Z,19.20
2018-05-17T12:44:42.893Z,19.80
2018-05-17T12:47:20.179Z,19.90
2018-05-17T12:49:55.693Z,19.80
2018-05-17T12:52:31.862Z,21.20
2018-05-17T12:55:05.644Z,21.00
2018-05-17T12:57:39.309Z,20.60
2018-05-17T13:00:13.634Z,20.60
2018-05-17T13:02:48.506Z,21.30
2018-05-17T13:05:23.750Z,21.50
2018-05-17T13:07:57.509Z,20.60
2018-05-17T13:10:31.924Z,20.90
2018-05-17T13:13:06.509Z,22.30
2018-05-17T13:15:40.871Z,21.80
2018-05-17T13:18:14.728Z,21.80
2018-05-17T13:20:48.462Z,21.20
2018-05-17T13:23:22.201Z,21.40
2018-05-17T13:25:56.809Z,22.80
2018-05-17T13:28:30.504Z,22.80
2018-05-17T13:31:04.157Z,22.40
2018-05-17T13:33:38.825Z,21.30
2018-05-17T13:36:12.590Z,21.30
2018-05-17T13:38:46.356Z,21.40
2018-05-17T13:41:20.049Z,22.30
2018-05-17T13:43:53.917Z,22.10
2018-05-17T13:46:27.627Z,23.00
2018-05-17T13:49:01.390Z,22.60
2018-05-17T13:51:35.151Z,22.50
2018-05-17T13:54:09.525Z,22.10
2018-05-17T13:56:43.396Z,22.50
2018-05-17T13:59:17.994Z,22.90
2018-05-17T14:01:52.343Z,22.60
2018-05-17T14:04:26.072Z,22.60
2018-05-17T14:06:59.822Z,22.30
2018-05-17T14:09:34.260Z,22.50
2018-05-17T14:12:08.078Z,22.40
2018-05-17T14:14:41.882Z,23.90
2018-05-17T14:17:15.683Z,24.30
2018-05-17T14:19:49.395Z,23.70
2018-05-17T14:22:23.104Z,23.90
2018-05-17T14:24:56.986Z,23.70
2018-05-17T14:27:30.740Z,24.10
2018-05-17T14:30:04.543Z,24.50
2018-05-17T14:32:38.375Z,24.40
2018-05-17T14:35:12.187Z,24.70
2018-05-17T14:37:45.958Z,25.20
2018-05-17T14:40:20.478Z,23.90
2018-05-17T14:42:54.258Z,22.60
2018-05-17T14:45:28.089Z,23.40
2018-05-17T14:48:01.876Z,22.70
2018-05-17T14:50:35.575Z,21.30
2018-05-17T14:53:09.279Z,20.70
2018-05-17T14:55:43.050Z,20.30
2018-05-17T14:58:16.878Z,20.30
2018-05-17T15:00:50.784Z,20.50
2018-05-17T15:03:24.428Z,20.50
2018-05-17T15:05:58.095Z,19.90
2018-05-17T15:08:32.745Z,20.10
2018-05-17T15:11:07.091Z,20.10
2018-05-17T15:13:40.683Z,19.50
2018-05-17T15:16:14.443Z,19.20
2018-05-17T15:18:48.229Z,21.70
2018-05-17T15:21:21.931Z,22.80
2018-05-17T15:23:55.780Z,22.90
2018-05-17T15:26:29.451Z,21.90
2018-05-17T15:29:04.007Z,18.80
2018-05-17T15:31:38.699Z,18.70
2018-05-17T15:34:12.546Z,18.20
2018-05-17T15:36:46.287Z,17.90
2018-05-17T15:39:19.853Z,17.10
2018-05-17T15:41:54.533Z,16.90
2018-05-17T15:44:29.872Z,16.00
2018-05-17T15:47:04.718Z,15.80
2018-05-17T15:49:39.213Z,15.80
2018-05-17T15:52:13.967Z,15.70
2018-05-17T15:54:48.493Z,15.20
2018-05-17T15:57:25.033Z,14.90
2018-05-17T15:59:58.768Z,14.80
2018-05-17T16:02:32.567Z,14.90
2018-05-17T16:05:07.409Z,15.00
2018-05-17T16:07:41.171Z,15.20
2018-05-17T16:10:14.941Z,15.10
2018-05-17T16:12:48.713Z,14.70
2018-05-17T16:15:23.084Z,14.60
2018-05-17T16:17:57.536Z,14.40
2018-05-17T16:20:31.253Z,14.40
2018-05-17T16:23:04.978Z,14.50
2018-05-17T16:25:38.801Z,14.40
2018-05-17T16:28:12.811Z,14.40
2018-05-17T16:30:46.467Z,14.20
2018-05-17T16:33:20.163Z,14.30
2018-05-17T16:35:54.071Z,14.40
2018-05-17T16:38:27.854Z,14.20
2018-05-17T16:41:01.699Z,14.10
2018-05-17T16:43:35.432Z,14.00
2018-05-17T16:46:09.315Z,14.00
2018-05-17T16:48:43.082Z,14.10
2018-05-17T16:51:17.524Z,14.00
2018-05-17T16:53:51.305Z,14.00
2018-05-17T16:56:28.713Z,14.10
2018-05-17T16:59:03.107Z,13.70
2018-05-17T17:01:36.801Z,13.70
2018-05-17T17:04:10.538Z,13.70
2018-05-17T17:06:44.329Z,13.50
2018-05-17T17:09:19.095Z,13.40
2018-05-17T17:11:53.590Z,13.30
2018-05-17T17:14:27.395Z,13.30
2018-05-17T17:17:02.928Z,13.50
2018-05-17T17:19:36.518Z,13.40
2018-05-17T17:22:10.364Z,13.40
2018-05-17T17:24:44.144Z,13.20
2018-05-17T17:27:17.811Z,13.20
2018-05-17T17:29:51.469Z,13.30
2018-05-17T17:32:25.988Z,13.20
2018-05-17T17:34:59.775Z,13.20
2018-05-17T17:37:35.103Z,13.10
2018-05-17T17:40:08.806Z,13.00
2018-05-17T17:42:42.534Z,13.00
2018-05-17T17:45:16.331Z,13.00
2018-05-17T17:47:50.735Z,12.90
2018-05-17T17:50:24.421Z,12.90
2018-05-17T17:52:59.396Z,12.80
2018-05-17T17:55:33.039Z,12.80
2018-05-17T17:58:07.556Z,12.70
2018-05-17T18:00:42.223Z,12.70
2018-05-17T18:03:15.927Z,12.80
2018-05-17T18:05:50.615Z,12.80
2018-05-17T18:08:24.629Z,12.80
2018-05-17T18:10:59.648Z,12.80
2018-05-17T18:13:41.226Z,12.80
2018-05-17T18:16:16.139Z,12.80
2018-05-17T18:18:51.495Z,12.80
2018-05-17T18:21:25.452Z,12.70
2018-05-17T18:24:00.171Z,12.50
2018-05-17T18:26:34.785Z,12.50
2018-05-17T18:31:52.091Z,12.50
2018-05-17T18:34:27.101Z,12.50
2018-05-17T18:37:00.627Z,12.40
2018-05-17T18:39:34.346Z,12.50
2018-05-17T18:42:08.093Z,12.40
2018-05-17T18:44:41.838Z,12.30
2018-05-17T18:47:15.917Z,12.30
2018-05-17T18:49:49.578Z,12.30
2018-05-17T18:52:24.879Z,12.40
2018-05-17T18:54:59.854Z,12.40
2018-05-17T18:57:34.827Z,12.30
2018-05-17T19:00:08.542Z,12.30
2018-05-17T19:02:44.181Z,12.30
2018-05-17T19:05:17.886Z,12.30
2018-05-17T19:07:51.607Z,12.30
2018-05-17T19:10:26.162Z,12.30
2018-05-17T19:13:01.464Z,12.30
2018-05-17T19:15:37.713Z,12.30
2018-05-17T19:18:13.141Z,12.20
2018-05-17T19:20:46.936Z,12.20
2018-05-17T19:23:22.351Z,12.20
2018-05-17T19:25:57.283Z,12.20
2018-05-17T19:28:31.403Z,12.20
2018-05-17T19:31:07.867Z,12.10
2018-05-17T19:33:45.586Z,12.10
2018-05-17T19:36:19.387Z,12.10
2018-05-17T19:38:53.982Z,12.10
2018-05-17T19:41:28.556Z,12.00
2018-05-17T19:44:03.457Z,12.00
2018-05-17T19:46:37.109Z,12.00
2018-05-17T19:49:10.846Z,12.00
2018-05-17T19:51:44.545Z,12.00
2018-05-17T19:54:18.419Z,11.90
2018-05-17T19:56:52.250Z,11.90
2018-05-17T20:02:04.690Z,11.90
2018-05-17T20:04:40.496Z,11.90
2018-05-17T20:07:14.284Z,11.90
2018-05-17T20:09:49.649Z,11.90
2018-05-17T20:12:26.005Z,11.90
2018-05-17T20:15:00.113Z,11.80
2018-05-17T20:17:34.817Z,11.90
2018-05-17T20:20:08.530Z,11.90
2018-05-17T20:22:42.311Z,11.90
2018-05-17T20:25:15.941Z,11.90
2018-05-17T20:27:53.432Z,11.90
2018-05-17T20:30:27.753Z,11.90
2018-05-17T20:33:01.519Z,11.90
2018-05-17T20:35:36.029Z,11.90
2018-05-17T20:38:10.127Z,11.80
2018-05-17T20:40:44.973Z,11.70
2018-05-17T20:43:18.829Z,11.70
2018-05-17T20:45:53.585Z,11.70
2018-05-17T20:48:28.834Z,11.80
2018-05-17T20:51:03.571Z,11.70
2018-05-17T20:53:38.111Z,11.80
2018-05-17T20:56:11.845Z,11.80
2018-05-17T20:58:45.643Z,11.80
2018-05-17T21:01:19.428Z,11.80
2018-05-17T21:03:53.889Z,11.70
2018-05-17T21:06:27.556Z,11.70
2018-05-17T21:09:02.160Z,11.60
2018-05-17T21:11:36.701Z,11.60
2018-05-17T21:14:12.129Z,11.60
2018-05-17T21:16:49.120Z,11.60
2018-05-17T21:19:24.115Z,11.50
2018-05-17T21:21:58.615Z,11.60
2018-05-17T21:24:33.342Z,11.60
2018-05-17T21:27:07.012Z,11.60
2018-05-17T21:29:40.948Z,11.60
2018-05-17T21:32:14.787Z,11.60
2018-05-17T21:34:48.582Z,11.50
2018-05-17T21:37:22.906Z,11.50
2018-05-17T21:39:56.608Z,11.50
2018-05-17T21:42:30.407Z,11.50
2018-05-17T21:45:04.214Z,11.50
2018-05-17T21:47:38.130Z,11.50
2018-05-17T21:50:13.389Z,11.40
2018-05-17T21:52:47.223Z,11.40
2018-05-17T21:55:21.246Z,11.40
2018-05-17T21:57:55.808Z,11.20
2018-05-17T22:00:30.881Z,11.20
2018-05-17T22:03:04.631Z,11.20
2018-05-17T22:05:38.439Z,11.20
2018-05-17T22:08:12.402Z,11.20
2018-05-17T22:10:47.784Z,11.10
2018-05-17T22:13:21.567Z,11.10
2018-05-17T22:15:56.115Z,11.10
2018-05-17T22:18:30.642Z,11.00
2018-05-17T22:21:05.267Z,11.00
2018-05-17T22:23:39.068Z,11.00
2018-05-17T22:26:12.893Z,10.90
2018-05-17T22:28:48.302Z,10.80
2018-05-17T22:31:22.020Z,10.80
2018-05-17T22:33:55.896Z,10.90
2018-05-17T22:36:30.454Z,10.80
2018-05-17T22:39:04.320Z,10.80
2018-05-17T22:41:38.886Z,10.80
2018-05-17T22:44:12.744Z,10.80
2018-05-17T22:46:46.499Z,10.80
2018-05-17T22:49:20.261Z,10.80
2018-05-17T22:51:55.733Z,10.80
2018-05-17T22:54:30.296Z,10.90
2018-05-17T22:57:11.997Z,10.80
2018-05-17T22:59:46.538Z,10.80
2018-05-17T23:02:22.305Z,10.80
2018-05-17T23:04:56.112Z,10.80
2018-05-17T23:07:29.956Z,10.80
2018-05-17T23:10:03.701Z,10.70
2018-05-17T23:12:37.533Z,10.70
2018-05-17T23:15:11.368Z,10.60
2018-05-17T23:17:45.129Z,10.60
2018-05-17T23:20:18.823Z,10.50
2018-05-17T23:22:52.925Z,10.50
2018-05-17T23:25:26.691Z,10.60
2018-05-17T23:28:00.587Z,10.60
2018-05-17T23:30:34.902Z,10.50
2018-05-17T23:33:08.760Z,10.50
2018-05-17T23:35:42.427Z,10.50
2018-05-17T23:38:16.120Z,10.50
2018-05-17T23:41:12.391Z,10.50
2018-05-17T23:43:46.194Z,10.60
2018-05-17T23:46:19.948Z,10.50
2018-05-17T23:48:53.698Z,10.50
2018-05-17T23:51:27.375Z,10.40
2018-05-17T23:54:02.051Z,10.40
2018-05-17T23:56:35.759Z,10.30
2018-05-17T23:59:09.450Z,10.30
